sensor_id;sensor_type;location;lat;lon;timestamp;P1;durP1;ratioP1;P2;durP2;ratioP2
7539;SDS011;3811;49.006;12.076;2023-05-07T00:01:56;3.60;;;3.20;;
7539;SDS011;3811;49.006;12.076;2023-05-07T00:04:24;3.90;;;3.60;;
7539;SDS011;3811;49.006;12.076;2023-05-07T00:06:52;4.13;;;3.63;;
7539;SDS011;3811;49.006;12.076;2023-05-07T00:09:20;3.47;;;3.20;;
7539;SDS011;3811;49.006;12.076;2023-05-07T00:11:47;4.33;;;3.70;;
7539;SDS011;3811;49.006;12.076;2023-05-07T00:14:14;3.93;;;3.47;;
7539;SDS011;3811;49.006;12.076;2023-05-07T00:16:41;4.10;;;3.60;;
7539;SDS011;3811;49.006;12.076;2023-05-07T00:19:09;4.33;;;3.67;;
7539;SDS011;3811;49.006;12.076;2023-05-07T00:21:36;3.97;;;3.60;;
7539;SDS011;3811;49.006;12.076;2023-05-07T00:24:05;3.87;;;3.57;;
7539;SDS011;3811;49.006;12.076;2023-05-07T00:26:32;5.13;;;3.80;;
7539;SDS011;3811;49.006;12.076;2023-05-07T00:29:00;3.83;;;3.53;;
7539;SDS011;3811;49.006;12.076;2023-05-07T00:31:27;4.40;;;3.80;;
7539;SDS011;3811;49.006;12.076;2023-05-07T00:33:54;3.97;;;3.57;;
7539;SDS011;3811;49.006;12.076;2023-05-07T00:36:21;3.57;;;3.27;;
7539;SDS011;3811;49.006;12.076;2023-05-07T00:38:49;3.73;;;3.30;;
7539;SDS011;3811;49.006;12.076;2023-05-07T00:41:17;3.97;;;3.67;;
7539;SDS011;3811;49.006;12.076;2023-05-07T00:43:45;4.43;;;4.00;;
7539;SDS011;3811;49.006;12.076;2023-05-07T00:46:12;3.50;;;3.30;;
7539;SDS011;3811;49.006;12.076;2023-05-07T00:48:41;3.87;;;3.53;;
7539;SDS011;3811;49.006;12.076;2023-05-07T00:51:08;3.73;;;3.37;;
7539;SDS011;3811;49.006;12.076;2023-05-07T00:53:36;3.80;;;3.50;;
7539;SDS011;3811;49.006;12.076;2023-05-07T00:56:04;3.43;;;3.23;;
7539;SDS011;3811;49.006;12.076;2023-05-07T00:58:33;5.23;;;3.47;;
7539;SDS011;3811;49.006;12.076;2023-05-07T01:01:01;4.00;;;3.37;;
7539;SDS011;3811;49.006;12.076;2023-05-07T01:03:29;4.20;;;3.80;;
7539;SDS011;3811;49.006;12.076;2023-05-07T01:05:56;3.67;;;3.37;;
7539;SDS011;3811;49.006;12.076;2023-05-07T01:08:25;4.10;;;3.70;;
7539;SDS011;3811;49.006;12.076;2023-05-07T01:10:54;4.10;;;3.80;;
7539;SDS011;3811;49.006;12.076;2023-05-07T01:13:22;4.20;;;3.83;;
7539;SDS011;3811;49.006;12.076;2023-05-07T01:15:51;4.20;;;3.80;;
7539;SDS011;3811;49.006;12.076;2023-05-07T01:18:18;3.97;;;3.57;;
7539;SDS011;3811;49.006;12.076;2023-05-07T01:20:46;4.07;;;3.67;;
7539;SDS011;3811;49.006;12.076;2023-05-07T01:23:16;4.40;;;3.93;;
7539;SDS011;3811;49.006;12.076;2023-05-07T01:25:50;8.87;;;3.90;;
7539;SDS011;3811;49.006;12.076;2023-05-07T01:28:18;3.80;;;3.50;;
7539;SDS011;3811;49.006;12.076;2023-05-07T01:30:46;5.40;;;3.57;;
7539;SDS011;3811;49.006;12.076;2023-05-07T01:33:18;4.00;;;3.70;;
7539;SDS011;3811;49.006;12.076;2023-05-07T01:35:48;4.10;;;3.80;;
7539;SDS011;3811;49.006;12.076;2023-05-07T01:38:19;3.70;;;3.40;;
7539;SDS011;3811;49.006;12.076;2023-05-07T01:40:47;3.77;;;3.37;;
7539;SDS011;3811;49.006;12.076;2023-05-07T01:43:15;3.80;;;3.50;;
7539;SDS011;3811;49.006;12.076;2023-05-07T01:45:42;4.20;;;3.90;;
7539;SDS011;3811;49.006;12.076;2023-05-07T01:48:11;4.73;;;4.33;;
7539;SDS011;3811;49.006;12.076;2023-05-07T01:50:38;4.40;;;4.00;;
7539;SDS011;3811;49.006;12.076;2023-05-07T01:53:06;4.27;;;3.87;;
7539;SDS011;3811;49.006;12.076;2023-05-07T01:55:34;3.77;;;3.47;;
7539;SDS011;3811;49.006;12.076;2023-05-07T01:58:02;5.07;;;3.87;;
7539;SDS011;3811;49.006;12.076;2023-05-07T02:00:30;4.53;;;4.13;;
7539;SDS011;3811;49.006;12.076;2023-05-07T02:02:58;4.33;;;3.93;;
7539;SDS011;3811;49.006;12.076;2023-05-07T02:05:45;5.10;;;3.77;;
7539;SDS011;3811;49.006;12.076;2023-05-07T02:08:27;4.57;;;4.17;;
7539;SDS011;3811;49.006;12.076;2023-05-07T02:10:57;4.20;;;3.80;;
7539;SDS011;3811;49.006;12.076;2023-05-07T02:13:25;4.93;;;4.03;;
7539;SDS011;3811;49.006;12.076;2023-05-07T02:15:53;4.30;;;4.00;;
7539;SDS011;3811;49.006;12.076;2023-05-07T02:18:20;5.10;;;4.57;;
7539;SDS011;3811;49.006;12.076;2023-05-07T02:20:47;5.00;;;4.60;;
7539;SDS011;3811;49.006;12.076;2023-05-07T02:23:14;5.23;;;4.73;;
7539;SDS011;3811;49.006;12.076;2023-05-07T02:25:42;5.60;;;4.93;;
7539;SDS011;3811;49.006;12.076;2023-05-07T02:28:11;4.80;;;4.40;;
7539;SDS011;3811;49.006;12.076;2023-05-07T02:30:59;4.93;;;4.47;;
7539;SDS011;3811;49.006;12.076;2023-05-07T02:33:28;4.53;;;4.13;;
7539;SDS011;3811;49.006;12.076;2023-05-07T02:35:56;5.33;;;4.83;;
7539;SDS011;3811;49.006;12.076;2023-05-07T02:38:23;5.90;;;4.67;;
7539;SDS011;3811;49.006;12.076;2023-05-07T02:40:50;5.67;;;5.17;;
7539;SDS011;3811;49.006;12.076;2023-05-07T02:43:18;5.03;;;4.53;;
7539;SDS011;3811;49.006;12.076;2023-05-07T02:45:48;6.20;;;4.90;;
7539;SDS011;3811;49.006;12.076;2023-05-07T02:48:15;5.13;;;4.73;;
7539;SDS011;3811;49.006;12.076;2023-05-07T02:50:42;4.67;;;4.27;;
7539;SDS011;3811;49.006;12.076;2023-05-07T02:53:12;4.93;;;4.43;;
7539;SDS011;3811;49.006;12.076;2023-05-07T02:55:39;4.90;;;4.50;;
7539;SDS011;3811;49.006;12.076;2023-05-07T02:58:07;5.63;;;4.73;;
7539;SDS011;3811;49.006;12.076;2023-05-07T03:00:37;5.63;;;4.93;;
7539;SDS011;3811;49.006;12.076;2023-05-07T03:03:22;5.77;;;4.83;;
7539;SDS011;3811;49.006;12.076;2023-05-07T03:05:50;5.00;;;4.60;;
7539;SDS011;3811;49.006;12.076;2023-05-07T03:08:17;8.73;;;4.77;;
7539;SDS011;3811;49.006;12.076;2023-05-07T03:10:44;5.73;;;5.17;;
7539;SDS011;3811;49.006;12.076;2023-05-07T03:13:12;5.30;;;4.80;;
7539;SDS011;3811;49.006;12.076;2023-05-07T03:15:40;5.30;;;4.80;;
7539;SDS011;3811;49.006;12.076;2023-05-07T03:18:07;5.53;;;5.03;;
7539;SDS011;3811;49.006;12.076;2023-05-07T03:20:35;7.13;;;6.33;;
7539;SDS011;3811;49.006;12.076;2023-05-07T03:23:02;6.10;;;5.30;;
7539;SDS011;3811;49.006;12.076;2023-05-07T03:25:31;6.53;;;5.37;;
7539;SDS011;3811;49.006;12.076;2023-05-07T03:27:59;6.87;;;5.30;;
7539;SDS011;3811;49.006;12.076;2023-05-07T03:30:35;6.13;;;5.40;;
7539;SDS011;3811;49.006;12.076;2023-05-07T03:33:04;6.67;;;5.93;;
7539;SDS011;3811;49.006;12.076;2023-05-07T03:35:31;7.07;;;6.20;;
7539;SDS011;3811;49.006;12.076;2023-05-07T03:37:59;6.97;;;5.97;;
7539;SDS011;3811;49.006;12.076;2023-05-07T03:40:29;10.13;;;6.60;;
7539;SDS011;3811;49.006;12.076;2023-05-07T03:42:57;7.90;;;6.80;;
7539;SDS011;3811;49.006;12.076;2023-05-07T03:45:25;8.87;;;6.67;;
7539;SDS011;3811;49.006;12.076;2023-05-07T03:48:05;9.53;;;7.23;;
7539;SDS011;3811;49.006;12.076;2023-05-07T03:50:32;7.77;;;7.03;;
7539;SDS011;3811;49.006;12.076;2023-05-07T03:53:00;7.73;;;6.93;;
7539;SDS011;3811;49.006;12.076;2023-05-07T03:55:29;7.83;;;7.10;;
7539;SDS011;3811;49.006;12.076;2023-05-07T03:57:59;7.57;;;6.80;;
7539;SDS011;3811;49.006;12.076;2023-05-07T04:00:27;7.90;;;7.10;;
7539;SDS011;3811;49.006;12.076;2023-05-07T04:02:58;7.40;;;6.57;;
7539;SDS011;3811;49.006;12.076;2023-05-07T04:05:30;8.40;;;7.20;;
7539;SDS011;3811;49.006;12.076;2023-05-07T04:08:01;8.33;;;7.43;;
7539;SDS011;3811;49.006;12.076;2023-05-07T04:10:35;10.23;;;7.00;;
7539;SDS011;3811;49.006;12.076;2023-05-07T04:13:07;9.90;;;7.40;;
7539;SDS011;3811;49.006;12.076;2023-05-07T04:15:35;7.63;;;6.83;;
7539;SDS011;3811;49.006;12.076;2023-05-07T04:18:04;8.50;;;7.60;;
7539;SDS011;3811;49.006;12.076;2023-05-07T04:20:34;7.93;;;7.13;;
7539;SDS011;3811;49.006;12.076;2023-05-07T04:23:04;7.90;;;7.07;;
7539;SDS011;3811;49.006;12.076;2023-05-07T04:25:32;8.07;;;7.27;;
7539;SDS011;3811;49.006;12.076;2023-05-07T04:28:07;8.47;;;6.63;;
7539;SDS011;3811;49.006;12.076;2023-05-07T04:30:35;8.70;;;7.07;;
7539;SDS011;3811;49.006;12.076;2023-05-07T04:33:04;7.80;;;6.90;;
7539;SDS011;3811;49.006;12.076;2023-05-07T04:35:32;8.47;;;7.43;;
7539;SDS011;3811;49.006;12.076;2023-05-07T04:38:01;8.40;;;7.50;;
7539;SDS011;3811;49.006;12.076;2023-05-07T04:40:29;9.60;;;7.53;;
7539;SDS011;3811;49.006;12.076;2023-05-07T04:42:56;8.87;;;7.87;;
7539;SDS011;3811;49.006;12.076;2023-05-07T04:45:24;8.77;;;7.93;;
7539;SDS011;3811;49.006;12.076;2023-05-07T04:47:53;8.37;;;7.57;;
7539;SDS011;3811;49.006;12.076;2023-05-07T04:50:20;9.20;;;8.30;;
7539;SDS011;3811;49.006;12.076;2023-05-07T04:52:51;7.63;;;6.90;;
7539;SDS011;3811;49.006;12.076;2023-05-07T04:55:19;9.47;;;7.97;;
7539;SDS011;3811;49.006;12.076;2023-05-07T04:57:47;8.03;;;7.07;;
7539;SDS011;3811;49.006;12.076;2023-05-07T05:00:15;7.63;;;6.93;;
7539;SDS011;3811;49.006;12.076;2023-05-07T05:02:45;10.00;;;8.13;;
7539;SDS011;3811;49.006;12.076;2023-05-07T05:05:16;7.63;;;6.83;;
7539;SDS011;3811;49.006;12.076;2023-05-07T05:07:44;9.00;;;8.00;;
7539;SDS011;3811;49.006;12.076;2023-05-07T05:10:12;8.83;;;7.77;;
7539;SDS011;3811;49.006;12.076;2023-05-07T05:12:41;7.77;;;7.00;;
7539;SDS011;3811;49.006;12.076;2023-05-07T05:15:10;8.37;;;7.47;;
7539;SDS011;3811;49.006;12.076;2023-05-07T05:17:38;7.70;;;7.00;;
7539;SDS011;3811;49.006;12.076;2023-05-07T05:20:06;7.90;;;6.97;;
7539;SDS011;3811;49.006;12.076;2023-05-07T05:22:36;7.57;;;6.87;;
7539;SDS011;3811;49.006;12.076;2023-05-07T05:25:03;8.17;;;7.40;;
7539;SDS011;3811;49.006;12.076;2023-05-07T05:27:31;7.20;;;6.50;;
7539;SDS011;3811;49.006;12.076;2023-05-07T05:30:00;8.00;;;7.20;;
7539;SDS011;3811;49.006;12.076;2023-05-07T05:32:29;8.73;;;7.83;;
7539;SDS011;3811;49.006;12.076;2023-05-07T05:34:56;7.57;;;6.83;;
7539;SDS011;3811;49.006;12.076;2023-05-07T05:37:24;8.13;;;7.17;;
7539;SDS011;3811;49.006;12.076;2023-05-07T05:39:52;8.37;;;6.90;;
7539;SDS011;3811;49.006;12.076;2023-05-07T05:42:20;8.77;;;7.47;;
7539;SDS011;3811;49.006;12.076;2023-05-07T05:44:47;8.20;;;6.93;;
7539;SDS011;3811;49.006;12.076;2023-05-07T05:47:16;8.03;;;7.23;;
7539;SDS011;3811;49.006;12.076;2023-05-07T05:49:44;9.10;;;7.77;;
7539;SDS011;3811;49.006;12.076;2023-05-07T05:52:14;8.70;;;7.47;;
7539;SDS011;3811;49.006;12.076;2023-05-07T05:54:42;7.77;;;7.07;;
7539;SDS011;3811;49.006;12.076;2023-05-07T05:57:09;8.13;;;7.33;;
7539;SDS011;3811;49.006;12.076;2023-05-07T05:59:37;7.63;;;6.77;;
7539;SDS011;3811;49.006;12.076;2023-05-07T06:02:04;7.63;;;6.93;;
7539;SDS011;3811;49.006;12.076;2023-05-07T06:04:34;8.80;;;6.93;;
7539;SDS011;3811;49.006;12.076;2023-05-07T06:07:02;8.00;;;6.90;;
7539;SDS011;3811;49.006;12.076;2023-05-07T06:09:29;7.90;;;7.10;;
7539;SDS011;3811;49.006;12.076;2023-05-07T06:11:56;8.33;;;7.10;;
7539;SDS011;3811;49.006;12.076;2023-05-07T06:14:23;7.93;;;6.83;;
7539;SDS011;3811;49.006;12.076;2023-05-07T06:16:51;8.03;;;7.33;;
7539;SDS011;3811;49.006;12.076;2023-05-07T06:19:18;7.30;;;6.70;;
7539;SDS011;3811;49.006;12.076;2023-05-07T06:21:52;7.37;;;6.67;;
7539;SDS011;3811;49.006;12.076;2023-05-07T06:24:22;7.07;;;6.37;;
7539;SDS011;3811;49.006;12.076;2023-05-07T06:26:49;7.50;;;6.80;;
7539;SDS011;3811;49.006;12.076;2023-05-07T06:29:17;7.00;;;6.40;;
7539;SDS011;3811;49.006;12.076;2023-05-07T06:31:45;7.70;;;7.00;;
7539;SDS011;3811;49.006;12.076;2023-05-07T06:34:12;7.70;;;7.00;;
7539;SDS011;3811;49.006;12.076;2023-05-07T06:36:40;7.13;;;6.43;;
7539;SDS011;3811;49.006;12.076;2023-05-07T06:39:17;7.57;;;6.77;;
7539;SDS011;3811;49.006;12.076;2023-05-07T06:41:45;7.00;;;6.40;;
7539;SDS011;3811;49.006;12.076;2023-05-07T06:44:22;6.60;;;6.00;;
7539;SDS011;3811;49.006;12.076;2023-05-07T06:46:58;6.90;;;6.30;;
7539;SDS011;3811;49.006;12.076;2023-05-07T06:49:26;7.00;;;6.10;;
7539;SDS011;3811;49.006;12.076;2023-05-07T06:51:53;6.97;;;6.37;;
7539;SDS011;3811;49.006;12.076;2023-05-07T06:54:22;7.33;;;6.50;;
7539;SDS011;3811;49.006;12.076;2023-05-07T06:56:50;8.07;;;6.10;;
7539;SDS011;3811;49.006;12.076;2023-05-07T06:59:18;7.23;;;6.00;;
7539;SDS011;3811;49.006;12.076;2023-05-07T07:01:45;7.10;;;6.33;;
7539;SDS011;3811;49.006;12.076;2023-05-07T07:04:13;8.70;;;6.90;;
7539;SDS011;3811;49.006;12.076;2023-05-07T07:06:43;16.50;;;9.93;;
7539;SDS011;3811;49.006;12.076;2023-05-07T07:09:12;10.73;;;8.43;;
7539;SDS011;3811;49.006;12.076;2023-05-07T07:11:41;8.47;;;6.87;;
7539;SDS011;3811;49.006;12.076;2023-05-07T07:14:09;7.47;;;6.40;;
7539;SDS011;3811;49.006;12.076;2023-05-07T07:16:43;8.03;;;6.03;;
7539;SDS011;3811;49.006;12.076;2023-05-07T07:19:12;6.47;;;5.87;;
7539;SDS011;3811;49.006;12.076;2023-05-07T07:21:41;8.00;;;6.27;;
7539;SDS011;3811;49.006;12.076;2023-05-07T07:24:11;7.53;;;6.37;;
7539;SDS011;3811;49.006;12.076;2023-05-07T07:26:39;8.03;;;6.53;;
7539;SDS011;3811;49.006;12.076;2023-05-07T07:29:09;10.37;;;7.20;;
7539;SDS011;3811;49.006;12.076;2023-05-07T07:31:36;12.90;;;8.10;;
7539;SDS011;3811;49.006;12.076;2023-05-07T07:34:04;8.53;;;7.00;;
7539;SDS011;3811;49.006;12.076;2023-05-07T07:36:32;8.57;;;6.97;;
7539;SDS011;3811;49.006;12.076;2023-05-07T07:38:59;7.37;;;6.47;;
7539;SDS011;3811;49.006;12.076;2023-05-07T07:41:27;6.37;;;5.77;;
7539;SDS011;3811;49.006;12.076;2023-05-07T07:43:54;9.23;;;5.87;;
7539;SDS011;3811;49.006;12.076;2023-05-07T07:46:23;6.30;;;5.80;;
7539;SDS011;3811;49.006;12.076;2023-05-07T07:48:52;8.93;;;5.83;;
7539;SDS011;3811;49.006;12.076;2023-05-07T07:51:20;6.00;;;5.40;;
7539;SDS011;3811;49.006;12.076;2023-05-07T07:53:47;6.33;;;5.73;;
7539;SDS011;3811;49.006;12.076;2023-05-07T07:56:16;5.67;;;5.17;;
7539;SDS011;3811;49.006;12.076;2023-05-07T07:58:44;6.73;;;5.77;;
7539;SDS011;3811;49.006;12.076;2023-05-07T08:01:11;5.93;;;5.43;;
7539;SDS011;3811;49.006;12.076;2023-05-07T08:03:41;5.80;;;5.30;;
7539;SDS011;3811;49.006;12.076;2023-05-07T08:06:08;5.60;;;5.03;;
7539;SDS011;3811;49.006;12.076;2023-05-07T08:08:36;5.67;;;5.13;;
7539;SDS011;3811;49.006;12.076;2023-05-07T08:11:03;5.83;;;5.30;;
7539;SDS011;3811;49.006;12.076;2023-05-07T08:13:32;5.27;;;4.77;;
7539;SDS011;3811;49.006;12.076;2023-05-07T08:16:00;5.80;;;5.20;;
7539;SDS011;3811;49.006;12.076;2023-05-07T08:18:27;5.77;;;5.17;;
7539;SDS011;3811;49.006;12.076;2023-05-07T08:20:58;5.90;;;5.40;;
7539;SDS011;3811;49.006;12.076;2023-05-07T08:23:26;6.67;;;6.03;;
7539;SDS011;3811;49.006;12.076;2023-05-07T08:25:53;5.73;;;4.90;;
7539;SDS011;3811;49.006;12.076;2023-05-07T08:28:22;4.80;;;4.40;;
7539;SDS011;3811;49.006;12.076;2023-05-07T08:30:50;4.90;;;4.50;;
7539;SDS011;3811;49.006;12.076;2023-05-07T08:33:17;5.70;;;4.33;;
7539;SDS011;3811;49.006;12.076;2023-05-07T08:35:45;4.77;;;3.63;;
7539;SDS011;3811;49.006;12.076;2023-05-07T08:38:15;3.93;;;3.50;;
7539;SDS011;3811;49.006;12.076;2023-05-07T08:40:42;3.93;;;3.43;;
7539;SDS011;3811;49.006;12.076;2023-05-07T08:43:15;4.50;;;3.43;;
7539;SDS011;3811;49.006;12.076;2023-05-07T08:45:44;5.63;;;4.17;;
7539;SDS011;3811;49.006;12.076;2023-05-07T08:48:14;4.40;;;4.10;;
7539;SDS011;3811;49.006;12.076;2023-05-07T08:50:48;3.83;;;3.53;;
7539;SDS011;3811;49.006;12.076;2023-05-07T08:53:17;4.23;;;3.90;;
7539;SDS011;3811;49.006;12.076;2023-05-07T08:55:45;4.63;;;3.33;;
7539;SDS011;3811;49.006;12.076;2023-05-07T08:58:13;4.03;;;3.73;;
7539;SDS011;3811;49.006;12.076;2023-05-07T09:00:42;3.60;;;3.40;;
7539;SDS011;3811;49.006;12.076;2023-05-07T09:03:10;3.50;;;3.00;;
7539;SDS011;3811;49.006;12.076;2023-05-07T09:05:40;4.80;;;2.83;;
7539;SDS011;3811;49.006;12.076;2023-05-07T09:08:14;3.33;;;2.80;;
7539;SDS011;3811;49.006;12.076;2023-05-07T09:10:45;3.47;;;3.27;;
7539;SDS011;3811;49.006;12.076;2023-05-07T09:13:15;6.47;;;3.77;;
7539;SDS011;3811;49.006;12.076;2023-05-07T09:15:43;3.90;;;3.60;;
7539;SDS011;3811;49.006;12.076;2023-05-07T09:18:11;4.63;;;3.73;;
7539;SDS011;3811;49.006;12.076;2023-05-07T09:20:41;4.00;;;3.60;;
7539;SDS011;3811;49.006;12.076;2023-05-07T09:23:08;3.70;;;3.40;;
7539;SDS011;3811;49.006;12.076;2023-05-07T09:25:36;3.60;;;3.30;;
7539;SDS011;3811;49.006;12.076;2023-05-07T09:28:13;3.57;;;3.27;;
7539;SDS011;3811;49.006;12.076;2023-05-07T09:30:40;3.47;;;3.27;;
7539;SDS011;3811;49.006;12.076;2023-05-07T09:33:10;3.63;;;3.33;;
7539;SDS011;3811;49.006;12.076;2023-05-07T09:35:40;3.60;;;3.30;;
7539;SDS011;3811;49.006;12.076;2023-05-07T09:38:13;3.30;;;3.10;;
7539;SDS011;3811;49.006;12.076;2023-05-07T09:40:41;4.37;;;3.37;;
7539;SDS011;3811;49.006;12.076;2023-05-07T09:43:13;3.57;;;3.27;;
7539;SDS011;3811;49.006;12.076;2023-05-07T09:45:50;3.90;;;3.60;;
7539;SDS011;3811;49.006;12.076;2023-05-07T09:48:22;3.73;;;3.43;;
7539;SDS011;3811;49.006;12.076;2023-05-07T09:50:53;4.43;;;3.43;;
7539;SDS011;3811;49.006;12.076;2023-05-07T09:53:26;3.73;;;3.43;;
7539;SDS011;3811;49.006;12.076;2023-05-07T09:55:54;3.80;;;3.50;;
7539;SDS011;3811;49.006;12.076;2023-05-07T09:58:24;3.47;;;3.27;;
7539;SDS011;3811;49.006;12.076;2023-05-07T10:00:53;3.93;;;3.63;;
7539;SDS011;3811;49.006;12.076;2023-05-07T10:03:22;4.80;;;4.40;;
7539;SDS011;3811;49.006;12.076;2023-05-07T10:05:59;4.33;;;3.93;;
7539;SDS011;3811;49.006;12.076;2023-05-07T10:08:27;8.50;;;4.37;;
7539;SDS011;3811;49.006;12.076;2023-05-07T10:10:57;5.03;;;4.17;;
7539;SDS011;3811;49.006;12.076;2023-05-07T10:13:29;5.83;;;4.47;;
7539;SDS011;3811;49.006;12.076;2023-05-07T10:15:58;5.03;;;4.10;;
7539;SDS011;3811;49.006;12.076;2023-05-07T10:21:04;5.33;;;4.83;;
7539;SDS011;3811;49.006;12.076;2023-05-07T10:23:35;5.45;;;4.95;;
7539;SDS011;3811;49.006;12.076;2023-05-07T10:26:05;5.47;;;4.97;;
7539;SDS011;3811;49.006;12.076;2023-05-07T10:28:38;5.28;;;4.90;;
7539;SDS011;3811;49.006;12.076;2023-05-07T10:31:15;5.20;;;4.80;;
7539;SDS011;3811;49.006;12.076;2023-05-07T10:33:52;5.25;;;4.85;;
7539;SDS011;3811;49.006;12.076;2023-05-07T10:36:22;4.78;;;4.47;;
7539;SDS011;3811;49.006;12.076;2023-05-07T10:38:51;5.93;;;4.90;;
7539;SDS011;3811;49.006;12.076;2023-05-07T10:41:19;5.32;;;4.93;;
7539;SDS011;3811;49.006;12.076;2023-05-07T10:43:48;5.20;;;4.75;;
7539;SDS011;3811;49.006;12.076;2023-05-07T10:46:23;5.10;;;4.70;;
7539;SDS011;3811;49.006;12.076;2023-05-07T10:49:06;4.65;;;4.15;;
7539;SDS011;3811;49.006;12.076;2023-05-07T10:54:45;5.70;;;5.20;;
7539;SDS011;3811;49.006;12.076;2023-05-07T10:57:32;5.05;;;4.75;;
7539;SDS011;3811;49.006;12.076;2023-05-07T11:00:40;5.38;;;4.40;;
7539;SDS011;3811;49.006;12.076;2023-05-07T11:03:13;6.95;;;4.40;;
7539;SDS011;3811;49.006;12.076;2023-05-07T11:06:11;5.60;;;4.75;;
7539;SDS011;3811;49.006;12.076;2023-05-07T11:08:53;4.95;;;4.55;;
7539;SDS011;3811;49.006;12.076;2023-05-07T11:17:21;4.82;;;4.47;;
7539;SDS011;3811;49.006;12.076;2023-05-07T11:19:55;4.35;;;3.97;;
7539;SDS011;3811;49.006;12.076;2023-05-07T11:22:38;4.28;;;3.90;;
7539;SDS011;3811;49.006;12.076;2023-05-07T11:25:32;3.40;;;3.20;;
7539;SDS011;3811;49.006;12.076;2023-05-07T11:28:06;3.25;;;3.05;;
7539;SDS011;3811;49.006;12.076;2023-05-07T11:30:36;4.30;;;4.00;;
7539;SDS011;3811;49.006;12.076;2023-05-07T11:33:09;4.95;;;4.55;;
7539;SDS011;3811;49.006;12.076;2023-05-07T11:35:38;3.90;;;3.60;;
7539;SDS011;3811;49.006;12.076;2023-05-07T11:38:08;4.07;;;3.78;;
7539;SDS011;3811;49.006;12.076;2023-05-07T11:40:48;3.13;;;2.80;;
7539;SDS011;3811;49.006;12.076;2023-05-07T11:43:15;3.50;;;3.30;;
7539;SDS011;3811;49.006;12.076;2023-05-07T11:45:43;3.00;;;2.80;;
7539;SDS011;3811;49.006;12.076;2023-05-07T11:48:13;4.32;;;4.03;;
7539;SDS011;3811;49.006;12.076;2023-05-07T11:50:49;4.13;;;3.72;;
7539;SDS011;3811;49.006;12.076;2023-05-07T11:53:17;3.38;;;3.10;;
7539;SDS011;3811;49.006;12.076;2023-05-07T11:55:45;4.22;;;3.92;;
7539;SDS011;3811;49.006;12.076;2023-05-07T11:58:12;5.13;;;4.80;;
7539;SDS011;3811;49.006;12.076;2023-05-07T12:00:48;5.30;;;4.90;;
7539;SDS011;3811;49.006;12.076;2023-05-07T12:03:17;4.68;;;4.35;;
7539;SDS011;3811;49.006;12.076;2023-05-07T12:05:44;4.90;;;4.50;;
7539;SDS011;3811;49.006;12.076;2023-05-07T12:08:13;4.70;;;4.40;;
7539;SDS011;3811;49.006;12.076;2023-05-07T12:10:41;4.93;;;4.63;;
7539;SDS011;3811;49.006;12.076;2023-05-07T12:13:13;5.25;;;4.85;;
7539;SDS011;3811;49.006;12.076;2023-05-07T12:15:41;4.95;;;4.47;;
7539;SDS011;3811;49.006;12.076;2023-05-07T12:18:08;4.32;;;4.03;;
7539;SDS011;3811;49.006;12.076;2023-05-07T12:20:37;4.32;;;4.03;;
7539;SDS011;3811;49.006;12.076;2023-05-07T12:23:05;4.75;;;4.45;;
7539;SDS011;3811;49.006;12.076;2023-05-07T12:25:34;4.43;;;4.03;;
7539;SDS011;3811;49.006;12.076;2023-05-07T12:28:01;4.35;;;4.00;;
7539;SDS011;3811;49.006;12.076;2023-05-07T12:30:30;4.88;;;4.47;;
7539;SDS011;3811;49.006;12.076;2023-05-07T12:32:58;4.25;;;3.88;;
7539;SDS011;3811;49.006;12.076;2023-05-07T12:35:28;3.70;;;3.30;;
7539;SDS011;3811;49.006;12.076;2023-05-07T12:37:56;3.55;;;3.35;;
7539;SDS011;3811;49.006;12.076;2023-05-07T12:40:34;3.50;;;3.20;;
7539;SDS011;3811;49.006;12.076;2023-05-07T12:43:02;3.60;;;3.40;;
7539;SDS011;3811;49.006;12.076;2023-05-07T12:45:29;3.30;;;3.10;;
7539;SDS011;3811;49.006;12.076;2023-05-07T12:47:57;3.70;;;3.40;;
7539;SDS011;3811;49.006;12.076;2023-05-07T12:50:30;4.47;;;3.85;;
7539;SDS011;3811;49.006;12.076;2023-05-07T12:52:59;4.13;;;3.83;;
7539;SDS011;3811;49.006;12.076;2023-05-07T12:55:28;3.88;;;3.53;;
7539;SDS011;3811;49.006;12.076;2023-05-07T12:57:55;3.65;;;3.35;;
7539;SDS011;3811;49.006;12.076;2023-05-07T13:00:33;3.40;;;3.20;;
7539;SDS011;3811;49.006;12.076;2023-05-07T13:03:04;3.70;;;3.50;;
7539;SDS011;3811;49.006;12.076;2023-05-07T13:05:31;3.80;;;3.60;;
7539;SDS011;3811;49.006;12.076;2023-05-07T13:08:00;3.47;;;3.28;;
7539;SDS011;3811;49.006;12.076;2023-05-07T13:10:27;3.88;;;3.58;;
7539;SDS011;3811;49.006;12.076;2023-05-07T13:12:54;3.88;;;3.58;;
7539;SDS011;3811;49.006;12.076;2023-05-07T13:15:22;3.45;;;3.25;;
7539;SDS011;3811;49.006;12.076;2023-05-07T13:17:49;3.30;;;3.10;;
7539;SDS011;3811;49.006;12.076;2023-05-07T13:20:16;3.83;;;3.53;;
7539;SDS011;3811;49.006;12.076;2023-05-07T13:22:43;3.70;;;3.40;;
7539;SDS011;3811;49.006;12.076;2023-05-07T13:25:12;3.30;;;3.10;;
7539;SDS011;3811;49.006;12.076;2023-05-07T13:27:39;3.47;;;3.28;;
7539;SDS011;3811;49.006;12.076;2023-05-07T13:30:07;3.40;;;3.20;;
7539;SDS011;3811;49.006;12.076;2023-05-07T13:32:34;4.22;;;3.22;;
7539;SDS011;3811;49.006;12.076;2023-05-07T13:35:01;3.60;;;2.90;;
7539;SDS011;3811;49.006;12.076;2023-05-07T13:37:28;3.50;;;3.20;;
7539;SDS011;3811;49.006;12.076;2023-05-07T13:39:55;3.33;;;3.10;;
7539;SDS011;3811;49.006;12.076;2023-05-07T13:42:24;3.33;;;3.13;;
7539;SDS011;3811;49.006;12.076;2023-05-07T13:44:51;3.10;;;2.90;;
7539;SDS011;3811;49.006;12.076;2023-05-07T13:47:19;3.22;;;3.03;;
7539;SDS011;3811;49.006;12.076;2023-05-07T13:49:45;3.10;;;2.90;;
7539;SDS011;3811;49.006;12.076;2023-05-07T13:52:14;3.30;;;3.08;;
7539;SDS011;3811;49.006;12.076;2023-05-07T13:54:41;3.50;;;3.30;;
7539;SDS011;3811;49.006;12.076;2023-05-07T13:57:09;3.08;;;2.88;;
7539;SDS011;3811;49.006;12.076;2023-05-07T13:59:37;5.40;;;3.03;;
7539;SDS011;3811;49.006;12.076;2023-05-07T14:02:04;3.10;;;2.90;;
7539;SDS011;3811;49.006;12.076;2023-05-07T14:04:31;3.38;;;3.08;;
7539;SDS011;3811;49.006;12.076;2023-05-07T14:06:58;3.20;;;3.00;;
7539;SDS011;3811;49.006;12.076;2023-05-07T14:09:26;2.75;;;2.65;;
7539;SDS011;3811;49.006;12.076;2023-05-07T14:11:53;3.95;;;2.97;;
7539;SDS011;3811;49.006;12.076;2023-05-07T14:14:20;3.08;;;2.88;;
7539;SDS011;3811;49.006;12.076;2023-05-07T14:16:49;3.17;;;2.88;;
7539;SDS011;3811;49.006;12.076;2023-05-07T14:19:16;3.72;;;2.50;;
7539;SDS011;3811;49.006;12.076;2023-05-07T14:21:43;3.03;;;2.75;;
7539;SDS011;3811;49.006;12.076;2023-05-07T14:24:10;3.28;;;3.08;;
7539;SDS011;3811;49.006;12.076;2023-05-07T14:26:37;2.97;;;2.78;;
7539;SDS011;3811;49.006;12.076;2023-05-07T14:29:05;4.05;;;3.00;;
7539;SDS011;3811;49.006;12.076;2023-05-07T14:31:32;3.25;;;3.03;;
7539;SDS011;3811;49.006;12.076;2023-05-07T14:34:01;3.20;;;3.00;;
7539;SDS011;3811;49.006;12.076;2023-05-07T14:36:28;3.95;;;2.95;;
7539;SDS011;3811;49.006;12.076;2023-05-07T14:38:56;3.45;;;3.15;;
7539;SDS011;3811;49.006;12.076;2023-05-07T14:41:24;3.85;;;3.50;;
7539;SDS011;3811;49.006;12.076;2023-05-07T14:43:51;3.70;;;3.40;;
7539;SDS011;3811;49.006;12.076;2023-05-07T14:46:19;3.40;;;3.10;;
7539;SDS011;3811;49.006;12.076;2023-05-07T14:48:46;3.63;;;3.10;;
7539;SDS011;3811;49.006;12.076;2023-05-07T14:51:14;4.40;;;3.58;;
7539;SDS011;3811;49.006;12.076;2023-05-07T14:53:42;3.58;;;3.28;;
7539;SDS011;3811;49.006;12.076;2023-05-07T14:56:09;4.25;;;3.42;;
7539;SDS011;3811;49.006;12.076;2023-05-07T14:58:36;3.22;;;3.03;;
7539;SDS011;3811;49.006;12.076;2023-05-07T15:01:03;3.38;;;3.08;;
7539;SDS011;3811;49.006;12.076;2023-05-07T15:03:31;3.30;;;3.10;;
7539;SDS011;3811;49.006;12.076;2023-05-07T15:05:58;9.70;;;3.75;;
7539;SDS011;3811;49.006;12.076;2023-05-07T15:08:26;5.63;;;4.13;;
7539;SDS011;3811;49.006;12.076;2023-05-07T15:10:54;4.75;;;4.35;;
7539;SDS011;3811;49.006;12.076;2023-05-07T15:13:21;4.05;;;3.75;;
7539;SDS011;3811;49.006;12.076;2023-05-07T15:15:48;7.15;;;4.63;;
7539;SDS011;3811;49.006;12.076;2023-05-07T15:18:16;5.10;;;4.53;;
7539;SDS011;3811;49.006;12.076;2023-05-07T15:20:43;4.65;;;4.25;;
7539;SDS011;3811;49.006;12.076;2023-05-07T15:23:10;4.32;;;3.90;;
7539;SDS011;3811;49.006;12.076;2023-05-07T15:25:42;3.67;;;3.40;;